Time,TemperatureF,DewpointF,PressureIn,WindDirection,WindDirectionDegrees,WindSpeedMPH,WindSpeedGustMPH,Humidity,HourlyPrecipIn,Conditions,Clouds,dailyrainin,SoftwareType,DateUTC
2013-03-04 00:01:00,26.1,19.9,29.32,NNE,22,0.0,0.0,77,0.00,,OVC240,0.00,VWS V14.01,2013-03-04 06:01:00,
2013-03-04 00:11:00,25.3,19.1,29.32,NNE,22,0.0,0.0,77,0.00,,OVC240,0.00,VWS V14.01,2013-03-04 06:11:00,
2013-03-04 00:21:00,25.3,19.1,29.35,NNE,22,0.0,0.0,77,0.00,,OVC240,0.00,VWS V14.01,2013-03-04 06:21:00,
2013-03-04 00:31:00,25.5,19.3,29.35,NNE,22,0.0,0.0,77,0.00,,OVC240,0.00,VWS V14.01,2013-03-04 06:31:00,
2013-03-04 00:41:00,25.5,18.7,29.35,NNE,22,0.0,0.0,75,0.00,,OVC240,0.00,VWS V14.01,2013-03-04 06:41:00,
2013-03-04 00:51:00,26.1,19.5,29.35,NNE,22,0.0,0.0,76,0.00,,OVC240,0.00,VWS V14.01,2013-03-04 06:51:00,
2013-03-04 01:01:00,26.8,20.5,29.35,NNE,22,0.0,0.0,77,0.00,,OVC240,0.00,VWS V14.01,2013-03-04 07:01:00,
2013-03-04 01:11:00,26.8,20.5,29.35,NNE,22,0.0,0.0,77,0.00,,OVC240,0.00,VWS V14.01,2013-03-04 07:11:00,
2013-03-04 01:21:00,26.4,20.5,29.35,NNE,22,0.0,0.0,78,0.00,,OVC240,0.00,VWS V14.01,2013-03-04 07:21:00,
2013-03-04 01:31:00,25.9,20.0,29.35,NNE,22,0.0,0.0,78,0.00,,OVC240,0.00,VWS V14.01,2013-03-04 07:31:00,
2013-03-04 01:41:00,25.2,19.0,29.35,North,0,0.0,0.0,77,0.00,,OVC240,0.00,VWS V14.01,2013-03-04 07:41:00,
2013-03-04 01:51:00,24.6,18.1,29.32,North,0,0.0,0.0,76,0.00,,OVC240,0.00,VWS V14.01,2013-03-04 07:51:00,
2013-03-04 02:01:00,24.8,18.6,29.35,North,0,0.0,0.0,77,0.00,,OVC240,0.00,VWS V14.01,2013-03-04 08:01:00,
2013-03-04 02:11:00,26.1,20.1,29.35,North,0,0.9,0.9,78,0.00,,OVC240,0.00,VWS V14.01,2013-03-04 08:11:00,
2013-03-04 02:21:00,26.6,21.3,29.35,North,0,0.0,0.9,80,0.00,,OVC240,0.00,VWS V14.01,2013-03-04 08:21:00,
2013-03-04 02:31:00,26.8,20.9,29.35,North,0,0.0,0.9,78,0.00,,OVC240,0.00,VWS V14.01,2013-03-04 08:31:00,
2013-03-04 02:41:00,27.1,21.2,29.35,North,0,0.0,0.9,78,0.00,,OVC240,0.00,VWS V14.01,2013-03-04 08:41:00,
2013-03-04 02:51:00,27.9,21.6,29.35,West,270,0.0,1.6,77,0.00,,OVC240,0.00,VWS V14.01,2013-03-04 08:51:00,
2013-03-04 03:01:00,27.7,22.0,29.35,North,0,0.0,0.9,79,0.00,,OVC240,0.00,VWS V14.01,2013-03-04 09:01:00,
2013-03-04 03:11:00,27.9,22.2,29.35,West,270,1.6,1.6,79,0.00,,OVC240,0.00,VWS V14.01,2013-03-04 09:11:00,
2013-03-04 03:21:00,28.0,22.4,29.35,West,270,0.0,1.6,79,0.00,,OVC240,0.00,VWS V14.01,2013-03-04 09:21:00,
2013-03-04 03:31:00,28.4,22.4,29.35,West,270,0.0,1.6,78,0.00,,OVC240,0.00,VWS V14.01,2013-03-04 09:31:00,
2013-03-04 03:41:00,28.4,22.1,29.35,West,270,0.0,1.6,77,0.00,,OVC240,0.00,VWS V14.01,2013-03-04 09:41:00,
2013-03-04 03:51:00,27.9,21.6,29.35,West,270,0.0,1.6,77,0.00,,OVC240,0.00,VWS V14.01,2013-03-04 09:51:00,
2013-03-04 04:01:00,27.1,20.9,29.35,West,270,0.0,0.0,77,0.00,,OVC240,0.00,VWS V14.01,2013-03-04 10:01:00,
2013-03-04 04:11:00,27.7,21.4,29.35,North,0,0.0,0.0,77,0.00,,OVC240,0.00,VWS V14.01,2013-03-04 10:11:00,
2013-03-04 04:21:00,28.0,21.5,29.35,North,0,0.0,0.0,76,0.00,,OVC240,0.00,VWS V14.01,2013-03-04 10:21:00,
2013-03-04 04:31:00,28.2,21.3,29.35,North,0,0.0,0.0,75,0.00,,OVC240,0.00,VWS V14.01,2013-03-04 10:31:00,
2013-03-04 04:40:00,28.9,21.7,29.38,North,0,0.0,0.0,74,0.00,,OVC240,0.00,VWS V14.01,2013-03-04 10:40:00,
2013-03-04 04:41:00,28.4,21.5,29.35,North,0,0.0,0.0,75,0.00,,OVC240,0.00,VWS V14.01,2013-03-04 10:41:00,
2013-03-04 04:50:00,29.1,21.9,29.38,North,0,0.0,0.0,74,0.00,,OVC240,0.00,VWS V14.01,2013-03-04 10:50:00,
2013-03-04 04:51:00,28.6,21.4,29.35,North,0,0.0,0.0,74,0.00,,OVC240,0.00,VWS V14.01,2013-03-04 10:51:00,
2013-03-04 05:01:00,28.8,21.5,29.38,North,0,0.0,0.0,74,0.00,,OVC240,0.00,VWS V14.01,2013-03-04 11:01:00,
2013-03-04 05:10:00,29.3,21.7,29.38,North,0,2.5,2.5,73,0.00,,OVC240,0.00,VWS V14.01,2013-03-04 11:10:00,
2013-03-04 05:11:00,28.8,21.2,29.38,North,0,0.0,0.0,73,0.00,,OVC240,0.00,VWS V14.01,2013-03-04 11:11:00,
2013-03-04 05:20:00,28.9,21.1,29.38,North,0,2.0,2.0,72,0.00,,OVC240,0.00,VWS V14.01,2013-03-04 11:20:00,
2013-03-04 05:21:00,28.8,21.5,29.38,North,0,0.0,0.0,74,0.00,,OVC240,0.00,VWS V14.01,2013-03-04 11:21:00,
2013-03-04 05:30:00,28.9,21.1,29.41,North,0,1.1,1.1,72,0.00,,OVC240,0.00,VWS V14.01,2013-03-04 11:30:00,
2013-03-04 05:32:00,28.9,21.7,29.38,North,0,0.0,0.0,74,0.00,,OVC240,0.00,VWS V14.01,2013-03-04 11:32:00,
2013-03-04 05:39:00,28.9,21.7,29.38,North,0,0.0,0.0,74,0.00,,OVC240,0.00,VWS V14.01,2013-03-04 11:39:00,
2013-03-04 05:40:00,29.1,21.6,29.41,North,0,0.0,0.0,73,0.00,,OVC240,0.00,VWS V14.01,2013-03-04 11:40:00,
2013-03-04 05:49:00,29.1,21.9,29.38,North,0,0.0,0.0,74,0.00,,OVC240,0.00,VWS V14.01,2013-03-04 11:49:00,
2013-03-04 05:50:00,29.5,21.9,29.35,North,0,0.0,0.0,73,0.00,,OVC240,0.00,VWS V14.01,2013-03-04 11:50:00,
2013-03-04 06:00:00,30.2,22.6,29.38,North,0,0.0,0.0,73,0.00,,OVC240,0.00,VWS V14.01,2013-03-04 12:00:00,
2013-03-04 06:09:00,29.3,21.7,29.38,North,0,2.5,2.5,73,0.00,,OVC240,0.00,VWS V14.01,2013-03-04 12:09:00,
2013-03-04 06:10:00,30.2,22.6,29.38,North,0,0.0,0.0,73,0.00,,OVC240,0.00,VWS V14.01,2013-03-04 12:10:00,
2013-03-04 06:19:00,28.9,21.1,29.38,North,0,2.0,2.0,72,0.00,,OVC240,0.00,VWS V14.01,2013-03-04 12:19:00,
2013-03-04 06:20:00,32.2,24.2,29.38,East,90,2.0,2.9,72,0.00,,OVC240,0.00,VWS V14.01,2013-03-04 12:20:00,
2013-03-04 06:29:00,28.9,21.1,29.41,North,0,1.1,1.1,72,0.00,,OVC240,0.00,VWS V14.01,2013-03-04 12:29:00,
2013-03-04 06:30:00,33.8,22.9,29.38,NE,45,2.9,2.9,64,0.00,,OVC240,0.00,VWS V14.01,2013-03-04 12:30:00,
2013-03-04 06:40:00,29.1,21.6,29.41,North,0,0.0,0.0,73,0.00,,OVC240,0.00,VWS V14.01,2013-03-04 12:40:00,
2013-03-04 06:49:00,29.5,21.9,29.35,North,0,0.0,0.0,73,0.00,,OVC240,0.00,VWS V14.01,2013-03-04 12:49:00,
2013-03-04 06:50:00,36.3,23.8,29.41,NE,45,2.7,2.7,60,0.00,,OVC240,0.00,VWS V14.01,2013-03-04 12:50:00,
2013-03-04 06:59:00,30.2,22.6,29.38,North,0,0.0,0.0,73,0.00,,OVC240,0.00,VWS V14.01,2013-03-04 12:59:00,
2013-03-04 07:00:00,38.1,24.7,29.41,NNE,22,3.6,3.6,58,0.00,,OVC240,0.00,VWS V14.01,2013-03-04 13:00:00,
2013-03-04 07:09:00,30.2,22.6,29.38,North,0,0.0,0.0,73,0.00,,OVC240,0.00,VWS V14.01,2013-03-04 13:09:00,
2013-03-04 07:10:00,38.5,23.3,29.41,NE,45,4.0,4.0,54,0.00,,OVC240,0.00,VWS V14.01,2013-03-04 13:10:00,
2013-03-04 07:19:00,32.2,24.2,29.38,East,90,2.0,2.9,72,0.00,,OVC240,0.00,VWS V14.01,2013-03-04 13:19:00,
2013-03-04 07:20:00,38.7,22.6,29.38,NNE,22,4.9,4.9,52,0.00,,OVC240,0.00,VWS V14.01,2013-03-04 13:20:00,
2013-03-04 07:29:00,33.8,22.9,29.38,NE,45,2.9,2.9,64,0.00,,OVC240,0.00,VWS V14.01,2013-03-04 13:29:00,
2013-03-04 07:30:00,40.3,24.1,29.38,NE,45,3.1,3.1,52,0.00,,OVC240,0.00,VWS V14.01,2013-03-04 13:30:00,
2013-03-04 07:39:00,35.1,23.0,29.38,NE,45,3.4,3.4,61,0.00,,OVC240,0.00,VWS V14.01,2013-03-04 13:39:00,
2013-03-04 07:40:00,41.5,24.8,29.38,East,90,1.6,1.6,51,0.00,,OVC240,0.00,VWS V14.01,2013-03-04 13:40:00,
2013-03-04 07:49:00,36.3,23.8,29.41,NE,45,2.7,2.7,60,0.00,,OVC240,0.00,VWS V14.01,2013-03-04 13:49:00,
2013-03-04 07:50:00,43.3,26.0,29.38,East,90,1.1,1.6,50,0.00,,OVC240,0.00,VWS V14.01,2013-03-04 13:50:00,
2013-03-04 07:59:00,38.1,24.7,29.41,NNE,22,3.6,3.6,58,0.00,,OVC240,0.00,VWS V14.01,2013-03-04 13:59:00,
2013-03-04 08:00:00,45.0,27.0,29.38,ESE,112,2.7,2.7,49,0.00,,OVC240,0.00,VWS V14.01,2013-03-04 14:00:00,
2013-03-04 08:09:00,38.5,23.3,29.41,NE,45,4.0,4.0,54,0.00,,OVC240,0.00,VWS V14.01,2013-03-04 14:09:00,
2013-03-04 08:10:00,46.4,27.3,29.38,East,90,2.0,2.0,47,0.00,,OVC240,0.00,VWS V14.01,2013-03-04 14:10:00,
2013-03-04 08:19:00,38.7,22.6,29.38,NNE,22,4.9,4.9,52,0.00,,OVC240,0.00,VWS V14.01,2013-03-04 14:19:00,
2013-03-04 08:20:00,48.0,26.6,29.38,ESE,112,1.6,1.6,43,0.00,,OVC240,0.00,VWS V14.01,2013-03-04 14:20:00,
2013-03-04 08:29:00,40.3,24.1,29.38,NE,45,3.1,3.1,52,0.00,,OVC240,0.00,VWS V14.01,2013-03-04 14:29:00,
2013-03-04 08:30:00,48.9,26.3,29.38,West,270,2.5,2.5,41,0.00,,OVC240,0.00,VWS V14.01,2013-03-04 14:30:00,
2013-03-04 08:39:00,41.5,24.8,29.38,East,90,1.6,1.6,51,0.00,,OVC240,0.00,VWS V14.01,2013-03-04 14:39:00,
2013-03-04 08:40:00,50.4,27.6,29.38,SE,135,3.1,3.1,41,0.00,,OVC240,0.00,VWS V14.01,2013-03-04 14:40:00,
2013-03-04 08:49:00,43.3,26.0,29.38,East,90,1.1,1.6,50,0.00,,OVC240,0.00,VWS V14.01,2013-03-04 14:49:00,
2013-03-04 08:50:00,51.8,27.6,29.38,NE,45,2.5,4.3,39,0.00,,OVC240,0.00,VWS V14.01,2013-03-04 14:50:00,
2013-03-04 08:59:00,45.0,27.0,29.38,ESE,112,2.7,2.7,49,0.00,,OVC240,0.00,VWS V14.01,2013-03-04 14:59:00,
2013-03-04 09:00:00,51.6,27.5,29.38,NE,45,2.0,2.2,39,0.00,,OVC240,0.00,VWS V14.01,2013-03-04 15:00:00,
2013-03-04 09:09:00,46.4,27.3,29.38,East,90,2.0,2.0,47,0.00,,OVC240,0.00,VWS V14.01,2013-03-04 15:09:00,
2013-03-04 09:10:00,51.1,26.4,29.38,SE,135,0.9,2.2,38,0.00,,OVC240,0.00,VWS V14.01,2013-03-04 15:10:00,
2013-03-04 09:20:00,48.0,26.6,29.38,ESE,112,1.6,1.6,43,0.00,,OVC240,0.00,VWS V14.01,2013-03-04 15:20:00,
2013-03-04 09:29:00,48.9,26.3,29.38,West,270,2.5,2.5,41,0.00,,OVC240,0.00,VWS V14.01,2013-03-04 15:29:00,
2013-03-04 09:30:00,53.1,28.1,29.38,East,90,3.1,3.1,38,0.00,,OVC240,0.00,VWS V14.01,2013-03-04 15:30:00,
2013-03-04 09:39:00,50.4,27.6,29.38,SE,135,3.1,3.1,41,0.00,,OVC240,0.00,VWS V14.01,2013-03-04 15:39:00,
2013-03-04 09:40:00,54.5,28.8,29.38,NE,45,1.6,1.6,37,0.00,,OVC240,0.00,VWS V14.01,2013-03-04 15:40:00,
2013-03-04 09:49:00,51.8,27.6,29.38,NE,45,2.5,4.3,39,0.00,,OVC240,0.00,VWS V14.01,2013-03-04 15:49:00,
2013-03-04 09:50:00,54.7,28.3,29.38,South,180,3.1,3.1,36,0.00,,OVC240,0.00,VWS V14.01,2013-03-04 15:50:00,
2013-03-04 09:59:00,51.6,27.5,29.38,NE,45,2.0,2.2,39,0.00,,OVC240,0.00,VWS V14.01,2013-03-04 15:59:00,
2013-03-04 10:00:00,54.3,27.3,29.35,SE,135,2.9,4.9,35,0.00,,OVC240,0.00,VWS V14.01,2013-03-04 16:00:00,
2013-03-04 10:09:00,51.1,26.4,29.38,SE,135,0.9,2.2,38,0.00,,OVC240,0.00,VWS V14.01,2013-03-04 16:09:00,
2013-03-04 10:10:00,53.1,26.8,29.35,WNW,292,2.0,2.0,36,0.00,,OVC240,0.00,VWS V14.01,2013-03-04 16:10:00,
2013-03-04 10:19:00,51.4,26.7,29.38,ENE,68,1.3,2.0,38,0.00,,OVC240,0.00,VWS V14.01,2013-03-04 16:19:00,
2013-03-04 10:20:00,54.1,27.8,29.35,SW,225,2.7,2.7,36,0.00,,OVC240,0.00,VWS V14.01,2013-03-04 16:20:00,
2013-03-04 10:29:00,53.1,28.1,29.38,East,90,3.1,3.1,38,0.00,,OVC240,0.00,VWS V14.01,2013-03-04 16:29:00,
2013-03-04 10:30:00,52.5,26.4,29.35,SSW,202,1.3,4.0,36,0.00,,OVC240,0.00,VWS V14.01,2013-03-04 16:30:00,
2013-03-04 10:39:00,54.5,28.8,29.38,NE,45,1.6,1.6,37,0.00,,OVC240,0.00,VWS V14.01,2013-03-04 16:39:00,
2013-03-04 10:40:00,53.2,27.0,29.35,SW,225,3.6,3.6,36,0.00,,OVC240,0.00,VWS V14.01,2013-03-04 16:40:00,
2013-03-04 10:49:00,54.7,28.3,29.38,South,180,3.1,3.1,36,0.00,,OVC240,0.00,VWS V14.01,2013-03-04 16:49:00,
2013-03-04 10:50:00,52.3,25.5,29.32,WSW,248,4.3,4.3,35,0.00,,OVC240,0.00,VWS V14.01,2013-03-04 16:50:00,
2013-03-04 11:00:00,54.3,27.3,29.35,SE,135,2.9,4.9,35,0.00,,OVC240,0.00,VWS V14.01,2013-03-04 17:00:00,
2013-03-04 11:09:00,53.1,26.8,29.35,WNW,292,2.0,2.0,36,0.00,,OVC240,0.00,VWS V14.01,2013-03-04 17:09:00,
2013-03-04 11:10:00,54.7,26.2,29.32,ESE,112,5.6,8.1,33,0.00,,OVC240,0.00,VWS V14.01,2013-03-04 17:10:00,
2013-03-04 11:19:00,54.1,27.8,29.35,SW,225,2.7,2.7,36,0.00,,OVC240,0.00,VWS V14.01,2013-03-04 17:19:00,
2013-03-04 11:20:00,55.0,27.2,29.32,West,270,4.3,4.3,34,0.00,,OVC240,0.00,VWS V14.01,2013-03-04 17:20:00,
2013-03-04 11:29:00,52.5,26.4,29.35,SSW,202,1.3,4.0,36,0.00,,OVC240,0.00,VWS V14.01,2013-03-04 17:29:00,
2013-03-04 11:30:00,57.9,27.5,29.32,SE,135,2.5,2.5,31,0.00,,OVC240,0.00,VWS V14.01,2013-03-04 17:30:00,
2013-03-04 11:39:00,53.2,27.0,29.35,SW,225,3.6,3.6,36,0.00,,OVC240,0.00,VWS V14.01,2013-03-04 17:39:00,
2013-03-04 11:40:00,57.4,27.8,29.32,SE,135,3.6,3.6,32,0.00,,OVC240,0.00,VWS V14.01,2013-03-04 17:40:00,
2013-03-04 11:49:00,52.3,25.5,29.32,WSW,248,4.3,4.3,35,0.00,,OVC240,0.00,VWS V14.01,2013-03-04 17:49:00,
2013-03-04 11:50:00,56.1,25.1,29.29,SE,135,3.1,3.8,30,0.00,,OVC240,0.00,VWS V14.01,2013-03-04 17:50:00,
2013-03-04 11:59:00,52.9,25.3,29.32,SE,135,6.3,6.3,34,0.00,,OVC240,0.00,VWS V14.01,2013-03-04 17:59:00,
2013-03-04 12:00:00,57.2,26.1,29.29,SSW,202,2.5,2.5,30,0.00,,OVC240,0.00,VWS V14.01,2013-03-04 18:00:00,
2013-03-04 12:09:00,54.7,26.2,29.32,ESE,112,5.6,8.1,33,0.00,,OVC240,0.00,VWS V14.01,2013-03-04 18:09:00,
2013-03-04 12:10:00,56.8,25.8,29.29,South,180,3.8,4.9,30,0.00,,OVC240,0.00,VWS V14.01,2013-03-04 18:10:00,
2013-03-04 12:19:00,55.0,27.2,29.32,West,270,4.3,4.3,34,0.00,,OVC240,0.00,VWS V14.01,2013-03-04 18:19:00,
2013-03-04 12:20:00,57.7,24.9,29.26,SW,225,3.1,3.6,28,0.00,,OVC240,0.00,VWS V14.01,2013-03-04 18:20:00,
2013-03-04 12:29:00,57.9,27.5,29.32,SE,135,2.5,2.5,31,0.00,,OVC240,0.00,VWS V14.01,2013-03-04 18:29:00,
2013-03-04 12:30:00,57.4,24.6,29.26,South,180,2.5,2.5,28,0.00,,OVC240,0.00,VWS V14.01,2013-03-04 18:30:00,
2013-03-04 12:39:00,57.4,27.8,29.32,SE,135,3.6,3.6,32,0.00,,OVC240,0.00,VWS V14.01,2013-03-04 18:39:00,
2013-03-04 12:40:00,57.6,25.6,29.26,SSW,202,2.5,3.1,29,0.00,,OVC240,0.00,VWS V14.01,2013-03-04 18:40:00,
2013-03-04 12:49:00,56.1,25.1,29.29,SE,135,3.1,3.8,30,0.00,,OVC240,0.00,VWS V14.01,2013-03-04 18:49:00,
2013-03-04 12:50:00,56.7,26.4,29.26,West,270,4.9,4.9,31,0.00,,OVC240,0.00,VWS V14.01,2013-03-04 18:50:00,
2013-03-04 12:59:00,57.2,26.1,29.29,SSW,202,2.5,2.5,30,0.00,,OVC240,0.00,VWS V14.01,2013-03-04 18:59:00,
2013-03-04 13:00:00,57.2,26.1,29.29,SSW,202,2.5,2.5,30,0.00,,OVC240,0.00,VWS V14.01,2013-03-04 19:00:00,
2013-03-04 13:09:00,56.8,25.8,29.29,South,180,3.8,4.9,30,0.00,,OVC240,0.00,VWS V14.01,2013-03-04 19:09:00,
2013-03-04 13:10:00,56.8,25.8,29.29,South,180,3.8,4.9,30,0.00,,OVC240,0.00,VWS V14.01,2013-03-04 19:10:00,
2013-03-04 13:19:00,57.7,24.9,29.26,SW,225,3.1,3.6,28,0.00,,OVC240,0.00,VWS V14.01,2013-03-04 19:19:00,
2013-03-04 13:20:00,57.7,24.9,29.26,SW,225,3.1,3.6,28,0.00,,OVC240,0.00,VWS V14.01,2013-03-04 19:20:00,
2013-03-04 13:29:00,57.4,24.6,29.26,South,180,2.5,2.5,28,0.00,,OVC240,0.00,VWS V14.01,2013-03-04 19:29:00,
2013-03-04 13:30:00,57.4,24.6,29.26,South,180,2.5,2.5,28,0.00,,OVC240,0.00,VWS V14.01,2013-03-04 19:30:00,
2013-03-04 13:39:00,57.6,25.6,29.26,SSW,202,2.5,3.1,29,0.00,,OVC240,0.00,VWS V14.01,2013-03-04 19:39:00,
2013-03-04 13:40:00,57.6,25.6,29.26,SSW,202,2.5,3.1,29,0.00,,OVC240,0.00,VWS V14.01,2013-03-04 19:40:00,
2013-03-04 13:49:00,56.7,26.4,29.26,West,270,4.9,4.9,31,0.00,,OVC240,0.00,VWS V14.01,2013-03-04 19:49:00,
2013-03-04 13:50:00,56.7,26.4,29.26,West,270,4.9,4.9,31,0.00,,OVC240,0.00,VWS V14.01,2013-03-04 19:50:00,
2013-03-04 13:59:00,56.3,27.6,29.23,SE,135,1.1,3.4,33,0.00,,OVC240,0.00,VWS V14.01,2013-03-04 19:59:00,
2013-03-04 14:00:00,56.3,27.6,29.23,SE,135,1.1,3.4,33,0.00,,OVC240,0.00,VWS V14.01,2013-03-04 20:00:00,
2013-03-04 14:09:00,56.3,26.1,29.23,SE,135,1.3,1.3,31,0.00,,OVC240,0.00,VWS V14.01,2013-03-04 20:09:00,
2013-03-04 14:10:00,56.3,26.1,29.23,SE,135,1.3,1.3,31,0.00,,OVC240,0.00,VWS V14.01,2013-03-04 20:10:00,
2013-03-04 14:19:00,58.1,26.9,29.26,ENE,68,2.9,2.9,30,0.00,,OVC240,0.00,VWS V14.01,2013-03-04 20:19:00,
2013-03-04 14:20:00,58.1,26.9,29.26,ENE,68,2.9,2.9,30,0.00,,OVC240,0.00,VWS V14.01,2013-03-04 20:20:00,
2013-03-04 14:29:00,57.7,25.7,29.26,ESE,112,2.0,2.0,29,0.00,,OVC240,0.00,VWS V14.01,2013-03-04 20:29:00,
2013-03-04 14:30:00,57.7,25.7,29.26,ESE,112,2.0,2.0,29,0.00,,OVC240,0.00,VWS V14.01,2013-03-04 20:30:00,
2013-03-04 14:39:00,58.8,28.3,29.26,SW,225,3.8,3.8,31,0.00,,OVC240,0.00,VWS V14.01,2013-03-04 20:39:00,
2013-03-04 14:40:00,58.8,28.3,29.26,SW,225,3.8,3.8,31,0.00,,OVC240,0.00,VWS V14.01,2013-03-04 20:40:00,
2013-03-04 14:49:00,58.8,27.5,29.26,SE,135,2.0,2.5,30,0.00,,OVC240,0.00,VWS V14.01,2013-03-04 20:49:00,
2013-03-04 14:50:00,58.8,27.5,29.26,SE,135,2.0,2.5,30,0.00,,OVC240,0.00,VWS V14.01,2013-03-04 20:50:00,
2013-03-04 14:59:00,59.7,28.3,29.26,SSE,158,2.5,2.5,30,0.00,,OVC240,0.00,VWS V14.01,2013-03-04 20:59:00,
2013-03-04 15:00:00,59.7,28.3,29.26,SSE,158,2.5,2.5,30,0.00,,OVC240,0.00,VWS V14.01,2013-03-04 21:00:00,
2013-03-04 15:09:00,58.6,26.5,29.26,SSE,158,2.5,2.9,29,0.00,,OVC240,0.00,VWS V14.01,2013-03-04 21:09:00,
2013-03-04 15:10:00,58.6,26.5,29.26,SSE,158,2.5,2.9,29,0.00,,OVC240,0.00,VWS V14.01,2013-03-04 21:10:00,
2013-03-04 15:19:00,58.8,27.5,29.26,SE,135,2.5,3.1,30,0.00,,OVC240,0.00,VWS V14.01,2013-03-04 21:19:00,
2013-03-04 15:20:00,58.8,27.5,29.26,SE,135,2.5,3.1,30,0.00,,OVC240,0.00,VWS V14.01,2013-03-04 21:20:00,
2013-03-04 15:29:00,57.6,27.2,29.23,SE,135,1.3,2.7,31,0.00,,OVC240,0.00,VWS V14.01,2013-03-04 21:29:00,
2013-03-04 15:30:00,57.6,27.2,29.23,SE,135,1.3,2.7,31,0.00,,OVC240,0.00,VWS V14.01,2013-03-04 21:30:00,
2013-03-04 15:39:00,56.8,27.3,29.23,South,180,2.5,2.5,32,0.00,,OVC240,0.00,VWS V14.01,2013-03-04 21:39:00,
2013-03-04 15:40:00,56.8,27.3,29.23,South,180,2.5,2.5,32,0.00,,OVC240,0.00,VWS V14.01,2013-03-04 21:40:00,
2013-03-04 15:49:00,56.7,27.2,29.23,SE,135,2.2,4.3,32,0.00,,OVC240,0.00,VWS V14.01,2013-03-04 21:49:00,
2013-03-04 15:50:00,56.7,27.2,29.23,SE,135,2.2,4.3,32,0.00,,OVC240,0.00,VWS V14.01,2013-03-04 21:50:00,
2013-03-04 15:59:00,56.5,28.5,29.20,WSW,248,0.0,0.0,34,0.00,,OVC240,0.00,VWS V14.01,2013-03-04 21:59:00,
2013-03-04 16:00:00,56.5,28.5,29.20,WSW,248,0.0,0.0,34,0.00,,OVC240,0.00,VWS V14.01,2013-03-04 22:00:00,
2013-03-04 16:09:00,56.1,28.1,29.20,SW,225,0.0,1.1,34,0.00,,OVC240,0.00,VWS V14.01,2013-03-04 22:09:00,
2013-03-04 16:10:00,56.1,28.2,29.20,SW,225,0.0,1.1,34,0.00,,OVC240,0.00,VWS V14.01,2013-03-04 22:10:00,
2013-03-04 16:19:00,55.4,28.2,29.20,South,180,0.9,1.6,35,0.00,,OVC240,0.00,VWS V14.01,2013-03-04 22:19:00,
2013-03-04 16:20:00,55.4,28.2,29.20,South,180,0.9,1.6,35,0.00,,OVC240,0.00,VWS V14.01,2013-03-04 22:20:00,
2013-03-04 16:29:00,54.5,27.4,29.17,NE,45,1.1,1.1,35,0.00,,OVC240,0.00,VWS V14.01,2013-03-04 22:29:00,
2013-03-04 16:30:00,54.5,27.4,29.17,NE,45,1.1,1.1,35,0.00,,OVC240,0.00,VWS V14.01,2013-03-04 22:30:00,
2013-03-04 16:39:00,53.4,27.1,29.17,SSW,202,3.1,3.1,36,0.00,,OVC240,0.00,VWS V14.01,2013-03-04 22:39:00,
2013-03-04 16:40:00,53.4,27.1,29.17,SSW,202,3.1,3.1,36,0.00,,OVC240,0.00,VWS V14.01,2013-03-04 22:40:00,
2013-03-04 16:49:00,52.5,26.4,29.17,West,270,2.0,2.0,36,0.00,,OVC240,0.00,VWS V14.01,2013-03-04 22:49:00,
2013-03-04 16:50:00,52.5,26.4,29.17,West,270,2.0,2.0,36,0.00,,OVC240,0.00,VWS V14.01,2013-03-04 22:50:00,
2013-03-04 16:59:00,51.8,25.7,29.20,SW,225,2.5,2.5,36,0.00,,OVC240,0.00,VWS V14.01,2013-03-04 22:59:00,
2013-03-04 17:00:00,51.8,25.7,29.20,SW,225,2.5,2.5,36,0.00,,OVC240,0.00,VWS V14.01,2013-03-04 23:00:00,
2013-03-04 17:09:00,50.9,25.6,29.20,SW,225,0.0,0.0,37,0.00,,OVC240,0.00,VWS V14.01,2013-03-04 23:09:00,
2013-03-04 17:10:00,50.9,25.6,29.20,SW,225,0.0,0.0,37,0.00,,OVC240,0.00,VWS V14.01,2013-03-04 23:10:00,
2013-03-04 17:19:00,50.7,25.4,29.20,SSW,202,0.0,0.0,37,0.00,,OVC240,0.00,VWS V14.01,2013-03-04 23:19:00,
2013-03-04 17:20:00,50.7,25.4,29.20,SSW,202,0.0,0.0,37,0.00,,OVC240,0.00,VWS V14.01,2013-03-04 23:20:00,
2013-03-04 17:29:00,49.8,25.2,29.20,NW,315,1.6,2.0,38,0.00,,OVC240,0.00,VWS V14.01,2013-03-04 23:29:00,
2013-03-04 17:30:00,49.8,25.2,29.20,NW,315,1.6,2.0,38,0.00,,OVC240,0.00,VWS V14.01,2013-03-04 23:30:00,
2013-03-04 17:39:00,48.6,24.7,29.20,North,0,1.1,1.1,39,0.00,,OVC240,0.00,VWS V14.01,2013-03-04 23:39:00,
2013-03-04 17:40:00,48.6,24.8,29.20,North,0,1.1,1.1,39,0.00,,OVC240,0.00,VWS V14.01,2013-03-04 23:40:00,
2013-03-04 17:49:00,48.4,24.6,29.20,WNW,292,0.0,0.0,39,0.00,,OVC240,0.00,VWS V14.01,2013-03-04 23:49:00,
2013-03-04 17:50:00,48.4,24.6,29.20,WNW,292,0.0,0.0,39,0.00,,OVC240,0.00,VWS V14.01,2013-03-04 23:50:00,
2013-03-04 17:59:00,47.7,25.1,29.20,NNW,338,0.0,0.0,41,0.00,,OVC240,0.00,VWS V14.01,2013-03-04 23:59:00,
2013-03-04 18:00:00,47.7,25.1,29.20,NNW,338,0.0,0.0,41,0.00,,OVC240,0.00,VWS V14.01,2013-03-05 00:00:00,
2013-03-04 18:09:00,47.3,25.4,29.20,West,270,1.6,2.2,42,0.00,,OVC240,0.00,VWS V14.01,2013-03-05 00:09:00,
2013-03-04 18:10:00,47.3,25.4,29.20,West,270,1.6,2.2,42,0.00,,OVC240,0.00,VWS V14.01,2013-03-05 00:10:00,
2013-03-04 18:19:00,47.7,26.3,29.20,West,270,3.4,3.4,43,0.00,,OVC240,0.00,VWS V14.01,2013-03-05 00:19:00,
2013-03-04 18:20:00,47.7,26.3,29.20,West,270,3.4,3.4,43,0.00,,OVC240,0.00,VWS V14.01,2013-03-05 00:20:00,
2013-03-04 18:29:00,48.0,27.2,29.20,WNW,292,2.7,2.9,44,0.00,,OVC240,0.00,VWS V14.01,2013-03-05 00:29:00,
2013-03-04 18:30:00,48.0,27.2,29.20,WNW,292,2.7,2.9,44,0.00,,OVC240,0.00,VWS V14.01,2013-03-05 00:30:00,
2013-03-04 18:40:00,48.6,26.5,29.20,South,180,0.0,1.3,42,0.00,,OVC240,0.00,VWS V14.01,2013-03-05 00:40:00,
2013-03-04 18:49:00,47.8,26.4,29.17,NW,315,0.0,0.0,43,0.00,,OVC240,0.00,VWS V14.01,2013-03-05 00:49:00,
2013-03-04 18:50:00,47.8,26.4,29.17,NW,315,0.0,0.0,43,0.00,,OVC240,0.00,VWS V14.01,2013-03-05 00:50:00,
2013-03-04 18:59:00,47.7,26.8,29.20,West,270,2.9,2.9,44,0.00,,OVC240,0.00,VWS V14.01,2013-03-05 00:59:00,
2013-03-04 19:00:00,47.7,26.8,29.20,West,270,2.9,2.9,44,0.00,,OVC240,0.00,VWS V14.01,2013-03-05 01:00:00,
2013-03-04 19:09:00,48.4,26.9,29.20,NW,315,4.3,4.3,43,0.00,,OVC240,0.00,VWS V14.01,2013-03-05 01:09:00,
2013-03-04 19:10:00,48.4,26.9,29.20,NW,315,4.3,4.3,43,0.00,,OVC240,0.00,VWS V14.01,2013-03-05 01:10:00,
2013-03-04 19:19:00,48.0,27.2,29.20,NW,315,1.1,1.1,44,0.00,,OVC240,0.00,VWS V14.01,2013-03-05 01:19:00,
2013-03-04 19:20:00,48.0,27.2,29.20,NW,315,1.1,1.1,44,0.00,,OVC240,0.00,VWS V14.01,2013-03-05 01:20:00,
2013-03-04 19:29:00,47.3,27.0,29.20,NW,315,2.5,2.7,45,0.00,,OVC240,0.00,VWS V14.01,2013-03-05 01:29:00,
2013-03-04 19:30:00,47.3,27.0,29.20,NW,315,2.5,2.7,45,0.00,,OVC240,0.00,VWS V14.01,2013-03-05 01:30:00,
2013-03-04 19:39:00,46.4,26.8,29.20,NW,315,0.0,0.0,46,0.00,,OVC240,0.00,VWS V14.01,2013-03-05 01:39:00,
2013-03-04 19:40:00,46.4,26.8,29.20,NW,315,0.0,0.0,46,0.00,,OVC240,0.00,VWS V14.01,2013-03-05 01:40:00,
2013-03-04 19:49:00,46.0,27.5,29.20,NW,315,3.6,3.6,48,0.00,,OVC240,0.00,VWS V14.01,2013-03-05 01:49:00,
2013-03-04 19:50:00,46.0,27.5,29.20,NW,315,3.6,3.6,48,0.00,,OVC240,0.00,VWS V14.01,2013-03-05 01:50:00,
2013-03-04 19:59:00,46.2,27.6,29.20,NW,315,2.0,2.0,48,0.00,,OVC240,0.00,VWS V14.01,2013-03-05 01:59:00,
2013-03-04 20:00:00,46.2,27.6,29.20,NW,315,2.0,2.0,48,0.00,,OVC240,0.00,VWS V14.01,2013-03-05 02:00:00,
2013-03-04 20:09:00,45.9,27.8,29.20,NW,315,2.5,2.7,49,0.00,,OVC240,0.00,VWS V14.01,2013-03-05 02:09:00,
2013-03-04 20:10:00,45.9,27.8,29.20,NW,315,2.5,2.7,49,0.00,,OVC240,0.00,VWS V14.01,2013-03-05 02:10:00,
2013-03-04 20:19:00,45.5,28.0,29.17,NW,315,1.3,2.2,50,0.00,,OVC240,0.00,VWS V14.01,2013-03-05 02:19:00,
2013-03-04 20:20:00,45.5,28.0,29.17,NW,315,1.3,2.2,50,0.00,,OVC240,0.00,VWS V14.01,2013-03-05 02:20:00,
2013-03-04 20:30:00,45.0,28.9,29.23,NW,315,1.1,2.2,53,0.00,,OVC240,0.00,VWS V14.01,2013-03-05 02:30:00,
2013-03-04 20:39:00,46.2,28.6,29.20,NW,315,2.5,3.6,50,0.00,,OVC240,0.00,VWS V14.01,2013-03-05 02:39:00,
2013-03-04 20:40:00,46.2,28.6,29.20,NW,315,2.5,3.6,50,0.00,,OVC240,0.00,VWS V14.01,2013-03-05 02:40:00,
2013-03-04 20:50:00,46.2,29.1,29.20,WNW,292,2.7,2.7,51,0.00,,OVC240,0.00,VWS V14.01,2013-03-05 02:50:00,
2013-03-04 20:59:00,45.9,29.2,29.20,NW,315,2.0,2.0,52,0.00,,OVC240,0.00,VWS V14.01,2013-03-05 02:59:00,
2013-03-04 21:00:00,45.9,29.2,29.20,NW,315,2.0,2.0,52,0.00,,OVC240,0.00,VWS V14.01,2013-03-05 03:00:00,
2013-03-04 21:01:00,45.5,30.3,29.23,West,270,0.0,0.0,55,0.00,,OVC240,0.00,VWS V14.01,2013-03-05 03:01:00,
2013-03-04 21:09:00,45.5,28.9,29.20,NW,315,0.0,0.0,52,0.00,,OVC240,0.00,VWS V14.01,2013-03-05 03:09:00,
2013-03-04 21:10:00,45.5,28.9,29.20,NW,315,0.0,0.0,52,0.00,,OVC240,0.00,VWS V14.01,2013-03-05 03:10:00,
2013-03-04 21:19:00,45.1,28.6,29.20,NW,315,1.3,1.3,52,0.00,,OVC240,0.00,VWS V14.01,2013-03-05 03:19:00,
2013-03-04 21:20:00,45.1,28.6,29.20,NW,315,1.3,1.3,52,0.00,,OVC240,0.00,VWS V14.01,2013-03-05 03:20:00,
2013-03-04 21:29:00,45.0,28.9,29.23,NW,315,1.1,2.2,53,0.00,,OVC240,0.00,VWS V14.01,2013-03-05 03:29:00,
2013-03-04 21:30:00,45.0,28.9,29.23,NW,315,1.1,2.2,53,0.00,,OVC240,0.00,VWS V14.01,2013-03-05 03:30:00,
2013-03-04 21:39:00,45.1,29.0,29.23,West,270,0.0,0.0,53,0.00,,OVC240,0.00,VWS V14.01,2013-03-05 03:39:00,
2013-03-04 21:40:00,45.1,29.0,29.23,West,270,0.0,0.0,53,0.00,,OVC240,0.00,VWS V14.01,2013-03-05 03:40:00,
2013-03-04 21:49:00,45.5,29.4,29.23,NW,315,0.0,0.0,53,0.00,,OVC240,0.00,VWS V14.01,2013-03-05 03:49:00,
2013-03-04 21:50:00,45.5,29.4,29.23,NW,315,0.0,0.0,53,0.00,,OVC240,0.00,VWS V14.01,2013-03-05 03:50:00,
2013-03-04 22:00:00,45.9,32.4,29.20,SW,225,0.0,0.0,59,0.00,,OVC240,0.00,VWS V14.01,2013-03-05 04:00:00,
2013-03-04 22:07:00,45.5,30.3,29.23,West,270,0.0,0.0,55,0.00,,OVC240,0.00,VWS V14.01,2013-03-05 04:07:00,
2013-03-04 22:10:00,47.7,30.9,29.20,NW,315,2.5,3.1,52,0.00,,OVC240,0.00,VWS V14.01,2013-03-05 04:10:00,
2013-03-04 22:20:00,49.6,31.8,29.17,NW,315,2.0,2.0,50,0.00,,OVC240,0.00,VWS V14.01,2013-03-05 04:20:00,
2013-03-04 22:29:00,46.0,31.2,29.23,NW,315,0.0,0.0,56,0.00,,OVC240,0.00,VWS V14.01,2013-03-05 04:29:00,
2013-03-04 22:30:00,50.7,31.8,29.17,SSW,202,2.7,2.7,48,0.00,,OVC240,0.00,VWS V14.01,2013-03-05 04:30:00,
2013-03-04 22:39:00,45.9,31.5,29.23,WNW,292,2.5,2.5,57,0.00,,OVC240,0.00,VWS V14.01,2013-03-05 04:39:00,
2013-03-04 22:40:00,50.9,31.9,29.17,West,270,1.6,1.6,48,0.00,,OVC240,0.00,VWS V14.01,2013-03-05 04:40:00,
2013-03-04 22:49:00,46.0,31.7,29.23,SW,225,1.6,2.0,57,0.00,,OVC240,0.00,VWS V14.01,2013-03-05 04:49:00,
2013-03-04 22:50:00,51.4,32.4,29.20,West,270,0.0,0.0,48,0.00,,OVC240,0.00,VWS V14.01,2013-03-05 04:50:00,
2013-03-04 23:00:00,45.9,32.4,29.20,SW,225,0.0,0.0,59,0.00,,OVC240,0.00,VWS V14.01,2013-03-05 05:00:00,
2013-03-04 23:09:00,47.7,30.9,29.20,NW,315,2.5,3.1,52,0.00,,OVC240,0.00,VWS V14.01,2013-03-05 05:09:00,
2013-03-04 23:10:00,51.4,32.4,29.20,SW,225,0.0,0.0,48,0.00,,OVC240,0.00,VWS V14.01,2013-03-05 05:10:00,
2013-03-04 23:19:00,49.6,31.8,29.17,NW,315,2.0,2.0,50,0.00,,OVC240,0.00,VWS V14.01,2013-03-05 05:19:00,
2013-03-04 23:20:00,51.1,32.1,29.20,NW,315,0.0,0.0,48,0.00,,OVC240,0.00,VWS V14.01,2013-03-05 05:20:00,
2013-03-04 23:29:00,50.7,31.8,29.17,SSW,202,2.7,2.7,48,0.00,,OVC240,0.00,VWS V14.01,2013-03-05 05:29:00,
2013-03-04 23:30:00,51.4,32.9,29.20,SW,225,0.0,0.0,49,0.00,,OVC240,0.00,VWS V14.01,2013-03-05 05:30:00,
2013-03-04 23:39:00,50.9,31.9,29.17,West,270,1.6,1.6,48,0.00,,OVC240,0.00,VWS V14.01,2013-03-05 05:39:00,
2013-03-04 23:40:00,51.6,33.1,29.20,SW,225,0.0,0.0,49,0.00,,OVC240,0.00,VWS V14.01,2013-03-05 05:40:00,
2013-03-04 23:49:00,51.4,32.4,29.20,West,270,0.0,0.0,48,0.00,,OVC240,0.00,VWS V14.01,2013-03-05 05:49:00,
2013-03-04 23:50:00,52.0,33.4,29.20,SW,225,0.0,1.1,49,0.00,,OVC240,0.00,VWS V14.01,2013-03-05 05:50:00,